Time;durP1;ratioP1;P1;durP2;ratioP2;P2;SDS_P1;SDS_P2;PMS_P1;PMS_P2;Temp;Humidity;BMP_temperature;BMP_pressure;BME280_temperature;BME280_humidity;BME280_pressure;Samples;Min_cycle;Max_cycle;Signal;HPM_P1;HPM_P2
2023/02/28 00:01:25;;;;;;;7.40;3.88;;;;;;;-0.68;100.00;103011.00;5121652;27;20055;-58
2023/02/28 00:03:54;;;;;;;7.57;3.42;;;;;;;-0.66;100.00;103000.69;5122592;27;20116;-58
2023/02/28 00:06:23;;;;;;;7.10;3.63;;;;;;;-0.64;100.00;103005.88;5124193;27;20067;-58
2023/02/28 00:08:53;;;;;;;8.23;3.70;;;;;;;-0.61;100.00;103006.81;5121283;27;20122;-58
2023/02/28 00:11:21;;;;;;;7.03;3.40;;;;;;;-0.59;100.00;102997.34;5123533;27;20043;-58
2023/02/28 00:13:50;;;;;;;6.93;3.40;;;;;;;-0.56;100.00;102996.53;5133851;27;20051;-58
2023/02/28 00:16:20;;;;;;;6.78;3.78;;;;;;;-0.53;100.00;103000.06;5134411;27;20047;-58
2023/02/28 00:18:48;;;;;;;7.68;3.47;;;;;;;-0.49;100.00;102995.81;5134020;27;20381;-59
2023/02/28 00:21:20;;;;;;;7.32;3.50;;;;;;;-0.45;100.00;103004.47;5132925;27;20035;-59
2023/02/28 00:23:48;;;;;;;8.35;3.40;;;;;;;-0.43;100.00;103001.06;5129864;27;20043;-59
2023/02/28 00:26:18;;;;;;;8.30;3.67;;;;;;;-0.38;100.00;102998.56;5119439;27;20050;-59
2023/02/28 00:28:49;;;;;;;7.93;4.05;;;;;;;-0.35;100.00;103006.34;5124562;27;20069;-59
2023/02/28 00:31:17;;;;;;;7.28;3.85;;;;;;;-0.31;100.00;103002.97;5118651;27;20493;-59
2023/02/28 00:33:45;;;;;;;8.50;3.25;;;;;;;-0.28;100.00;103000.41;5117532;27;20043;-59
2023/02/28 00:36:13;;;;;;;10.13;3.67;;;;;;;-0.25;100.00;102997.88;5117765;27;20055;-59
2023/02/28 00:38:42;;;;;;;8.07;3.95;;;;;;;-0.22;100.00;102997.94;5121978;28;20283;-59
2023/02/28 00:41:13;;;;;;;8.03;3.37;;;;;;;-0.17;100.00;103001.44;5120883;28;20114;-59
2023/02/28 00:43:42;;;;;;;9.13;3.72;;;;;;;-0.13;100.00;102992.00;5119670;27;20821;-59
2023/02/28 00:46:10;;;;;;;8.20;3.67;;;;;;;-0.03;100.00;103000.75;5123699;28;20516;-59
2023/02/28 00:48:39;;;;;;;9.07;3.88;;;;;;;-0.03;100.00;102999.06;5123606;27;20042;-59
2023/02/28 00:51:07;;;;;;;8.80;4.00;;;;;;;0.07;100.00;102997.47;5126335;27;20035;-59
2023/02/28 00:53:35;;;;;;;7.70;3.55;;;;;;;0.10;100.00;102997.50;5122597;27;20054;-59
2023/02/28 00:56:04;;;;;;;7.10;3.85;;;;;;;0.11;100.00;102994.06;5122662;27;20043;-59
2023/02/28 00:58:32;;;;;;;7.15;3.60;;;;;;;0.13;100.00;102994.06;5123370;27;20054;-59
2023/02/28 01:01:02;;;;;;;8.57;3.65;;;;;;;0.15;100.00;102997.53;5120561;27;21617;-59
2023/02/28 01:03:30;;;;;;;10.45;4.13;;;;;;;0.19;100.00;102993.28;5130802;27;20047;-59
2023/02/28 01:05:58;;;;;;;9.23;3.67;;;;;;;0.22;100.00;102982.97;5128250;27;20043;-59
2023/02/28 01:08:27;;;;;;;8.18;4.00;;;;;;;0.23;100.00;103000.22;5127520;27;20053;-59
2023/02/28 01:10:55;;;;;;;7.72;3.88;;;;;;;0.27;100.00;102994.25;5119527;27;20038;-59
2023/02/28 01:13:26;;;;;;;8.23;4.00;;;;;;;0.35;100.00;102995.22;5124406;27;20390;-59
2023/02/28 01:15:57;;;;;;;9.77;4.22;;;;;;;0.36;100.00;102985.75;5132826;27;20407;-59
2023/02/28 01:18:26;;;;;;;8.57;3.80;;;;;;;0.42;100.00;102983.19;5134415;27;20038;-59
2023/02/28 01:20:55;;;;;;;7.72;3.80;;;;;;;0.44;100.00;102989.28;5128654;27;20386;-59
2023/02/28 01:23:24;;;;;;;7.70;3.85;;;;;;;0.43;100.00;102990.97;5136147;27;20039;-59
2023/02/28 01:25:52;;;;;;;8.65;4.15;;;;;;;0.43;100.00;103003.94;5121864;27;20494;-59
2023/02/28 01:28:21;;;;;;;8.30;3.53;;;;;;;0.42;100.00;102999.59;5126633;27;20092;-59
2023/02/28 01:30:49;;;;;;;8.55;3.85;;;;;;;0.43;100.00;102998.75;5123550;27;20620;-59
2023/02/28 01:33:18;;;;;;;10.20;4.50;;;;;;;0.45;100.00;102991.88;5122030;27;20055;-59
2023/02/28 01:35:47;;;;;;;8.43;4.03;;;;;;;0.46;100.00;102998.81;5121327;27;20043;-59
2023/02/28 01:38:16;;;;;;;7.78;4.32;;;;;;;0.49;100.00;103001.44;5125922;27;20157;-59
2023/02/28 01:40:50;;;;;;;6.43;3.60;;;;;;;0.50;100.00;102992.81;5123923;27;20032;-59
2023/02/28 01:43:23;;;;;;;9.15;4.55;;;;;;;0.59;100.00;102994.63;5126648;27;20104;-59
2023/02/28 01:45:53;;;;;;;8.10;3.85;;;;;;;0.65;100.00;102999.00;5126403;27;20510;-59
2023/02/28 01:48:26;;;;;;;8.13;4.07;;;;;;;0.63;100.00;102998.13;5128112;27;20066;-59
2023/02/28 01:51:01;;;;;;;10.65;4.22;;;;;;;0.60;100.00;102986.00;5123798;27;20036;-59
2023/02/28 01:53:34;;;;;;;8.77;4.35;;;;;;;0.62;100.00;102986.03;5120399;27;20036;-60
2023/02/28 01:56:06;;;;;;;7.20;4.15;;;;;;;0.62;100.00;102986.03;5118374;27;20151;-60
2023/02/28 01:58:36;;;;;;;9.50;4.35;;;;;;;0.68;100.00;102988.66;5121330;27;20501;-60
2023/02/28 02:01:04;;;;;;;8.95;4.50;;;;;;;0.66;100.00;102985.19;5129528;27;20100;-60
2023/02/28 02:03:33;;;;;;;10.68;4.65;;;;;;;0.69;100.00;102987.81;5121583;27;20050;-60
2023/02/28 02:06:03;;;;;;;9.68;4.82;;;;;;;0.69;100.00;102993.00;5122192;27;20050;-60
2023/02/28 02:08:31;;;;;;;8.80;4.47;;;;;;;0.73;100.00;102992.19;5119377;27;20054;-60
2023/02/28 02:11:01;;;;;;;8.32;3.92;;;;;;;0.71;100.00;102993.91;5130830;27;20114;-60
2023/02/28 02:13:47;;;;;;;9.90;4.13;;;;;;;0.72;100.00;102989.56;5115933;28;20051;-60
2023/02/28 02:16:35;;;;;;;8.50;4.60;;;;;;;0.74;100.00;102988.75;5123255;27;20054;-60
2023/02/28 02:19:22;;;;;;;9.43;4.68;;;;;;;0.68;100.00;102986.06;5133423;27;20431;-60
2023/02/28 02:22:22;;;;;;;8.35;4.72;;;;;;;0.73;100.00;102992.19;5132096;27;20035;-60
2023/02/28 02:25:06;;;;;;;7.90;4.40;;;;;;;0.68;100.00;102983.47;5091193;28;20052;-59
2023/02/28 02:27:50;;;;;;;8.85;4.35;;;;;;;0.72;100.00;102989.56;5115242;27;20042;-59
2023/02/28 02:30:38;;;;;;;8.95;4.57;;;;;;;0.74;100.00;102983.56;5133373;27;20047;-61
2023/02/28 02:33:39;;;;;;;9.70;4.60;;;;;;;0.67;100.00;102976.59;5132979;27;20051;-60
2023/02/28 02:36:14;;;;;;;7.32;4.00;;;;;;;0.70;100.00;102986.97;5131695;27;20478;-58
2023/02/28 02:38:50;;;;;;;9.00;4.38;;;;;;;0.67;100.00;102990.41;5132590;27;20545;-59
2023/02/28 02:41:29;;;;;;;10.88;4.78;;;;;;;0.72;100.00;102990.44;5127173;27;20039;-59
2023/02/28 02:44:04;;;;;;;8.48;4.75;;;;;;;0.69;100.00;102986.97;5125554;27;20031;-51
2023/02/28 02:46:35;;;;;;;7.88;4.38;;;;;;;0.71;100.00;102988.72;5117358;27;20084;-49
2023/02/28 02:49:07;;;;;;;8.60;4.43;;;;;;;0.72;100.00;102995.59;5123479;27;20067;-59
2023/02/28 02:51:39;;;;;;;7.40;4.05;;;;;;;0.72;100.00;102993.03;5121616;27;20421;-59
2023/02/28 02:54:11;;;;;;;8.77;4.20;;;;;;;0.66;100.00;102986.06;5121330;27;20118;-59
2023/02/28 02:56:44;;;;;;;10.25;4.85;;;;;;;0.71;100.00;102980.94;5124760;27;20114;-58
2023/02/28 02:59:15;;;;;;;10.77;4.60;;;;;;;0.74;100.00;102990.47;5120700;27;20478;-59
2023/02/28 03:01:43;;;;;;;9.38;5.13;;;;;;;0.69;100.00;103000.78;5121919;27;20513;-59
2023/02/28 03:04:17;;;;;;;9.52;4.25;;;;;;;0.70;100.00;102999.91;5119576;27;20145;-59
2023/02/28 03:06:47;;;;;;;9.13;4.47;;;;;;;0.69;100.00;102994.72;5118429;27;20035;-58
2023/02/28 03:09:15;;;;;;;9.65;4.70;;;;;;;0.72;100.00;102995.59;5123568;27;20047;-59
2023/02/28 03:11:43;;;;;;;9.23;4.55;;;;;;;0.72;100.00;103003.38;5120720;27;20084;-59
2023/02/28 03:14:27;;;;;;;11.65;5.10;;;;;;;0.73;100.00;102997.34;5121308;27;20047;-59
2023/02/28 03:17:18;;;;;;;10.60;4.65;;;;;;;0.81;100.00;103006.06;5121230;27;20564;-59
2023/02/28 03:20:04;;;;;;;8.27;4.18;;;;;;;0.75;100.00;102995.66;5122502;27;20039;-58
2023/02/28 03:22:58;;;;;;;11.98;4.47;;;;;;;0.74;100.00;103000.84;5123042;27;20039;-59
2023/02/28 03:25:36;;;;;;;7.90;4.05;;;;;;;0.72;100.00;102995.59;5121846;27;20040;-59
2023/02/28 03:28:12;;;;;;;7.47;3.83;;;;;;;0.75;100.00;102994.78;5122166;27;20051;-59
2023/02/28 03:30:53;;;;;;;10.20;3.97;;;;;;;0.76;100.00;102992.19;5125875;27;20041;-59
2023/02/28 03:33:25;;;;;;;9.07;3.92;;;;;;;0.84;100.00;102998.31;5123669;27;20114;-59
2023/02/28 03:35:56;;;;;;;6.93;3.60;;;;;;;0.81;100.00;102987.09;5124546;27;20043;-59
2023/02/28 03:38:34;;;;;;;9.27;3.72;;;;;;;0.81;100.00;102994.84;5117255;27;20048;-59
2023/02/28 03:41:07;;;;;;;8.75;3.42;;;;;;;0.78;100.00;102990.50;5117945;27;20522;-59
2023/02/28 03:43:39;;;;;;;7.47;3.58;;;;;;;0.79;100.00;102991.38;5122711;27;21149;-59
2023/02/28 03:46:12;;;;;;;7.53;3.53;;;;;;;0.80;100.00;102987.94;5124462;27;20039;-59
2023/02/28 03:48:44;;;;;;;7.53;3.72;;;;;;;0.79;100.00;102991.38;5120945;27;20043;-59
2023/02/28 03:51:17;;;;;;;;;;;;;;;0.80;100.00;102996.56;5120755;27;20054;-59
2023/02/28 03:53:51;;;;;;;9.05;4.22;;;;;;;0.84;100.00;102993.13;5124524;27;20008;-59
2023/02/28 03:56:23;;;;;;;7.03;3.78;;;;;;;0.82;100.00;102983.66;5122198;27;20045;-59
2023/02/28 03:58:59;;;;;;;7.70;4.10;;;;;;;0.81;100.00;102987.94;5122671;27;20054;-59
2023/02/28 04:01:33;;;;;;;8.40;4.15;;;;;;;0.82;100.00;102981.91;5122062;27;20392;-59
2023/02/28 04:04:01;;;;;;;11.27;3.70;;;;;;;0.85;100.00;102981.06;5121135;27;20051;-59
2023/02/28 04:06:33;;;;;;;6.53;3.70;;;;;;;0.87;100.00;102975.91;5123141;27;20042;-59
2023/02/28 04:09:03;;;;;;;8.35;3.95;;;;;;;0.90;100.00;102978.50;5120652;27;20786;-59
2023/02/28 04:11:36;;;;;;;6.88;3.50;;;;;;;0.90;100.00;102971.63;5124142;27;20071;-59
2023/02/28 04:14:04;;;;;;;;;;;;;;;0.90;100.00;102973.34;5111156;28;20597;-59
2023/02/28 04:16:33;;;;;;;7.03;3.42;;;;;;;0.92;100.00;102969.91;5117315;27;19919;-59
2023/02/28 04:19:04;;;;;;;7.93;3.88;;;;;;;0.90;100.00;102963.84;5131823;27;20051;-59
2023/02/28 04:21:35;;;;;;;7.18;3.40;;;;;;;0.90;100.00;102976.81;5127829;27;20550;-59
2023/02/28 04:24:06;;;;;;;6.28;3.20;;;;;;;0.98;100.00;102976.88;5110286;28;20047;-59
2023/02/28 04:26:36;;;;;;;6.63;3.63;;;;;;;0.95;100.00;102982.03;5112925;28;20074;-59
2023/02/28 04:29:07;;;;;;;6.78;3.53;;;;;;;0.97;100.00;102985.53;5121930;27;20043;-59
2023/02/28 04:31:35;;;;;;;9.27;3.58;;;;;;;1.00;100.00;102977.75;5130598;27;20043;-59
2023/02/28 04:34:04;;;;;;;6.85;3.40;;;;;;;0.96;100.00;102969.09;5131456;27;20103;-59
2023/02/28 04:36:32;;;;;;;8.10;3.20;;;;;;;0.96;100.00;102976.00;5128652;27;20039;-60
2023/02/28 04:39:00;;;;;;;7.22;3.50;;;;;;;0.95;100.00;102971.66;5130200;27;20066;-59
2023/02/28 04:41:30;;;;;;;7.93;3.22;;;;;;;0.92;100.00;102969.91;5125585;27;20053;-59
2023/02/28 04:44:00;;;;;;;6.90;3.10;;;;;;;0.95;100.00;102969.94;5120883;27;20527;-59
2023/02/28 04:46:28;;;;;;;7.50;3.13;;;;;;;1.00;100.00;102980.34;5118878;28;20484;-59
2023/02/28 04:48:56;;;;;;;8.73;3.78;;;;;;;0.98;100.00;102982.94;5121640;27;20046;-59
2023/02/28 04:51:27;;;;;;;5.90;2.83;;;;;;;0.98;100.00;102982.94;5122763;28;20110;-59
2023/02/28 04:53:56;;;;;;;7.30;2.80;;;;;;;0.97;100.00;102967.38;5118997;28;20089;-59
2023/02/28 04:56:24;;;;;;;6.00;2.55;;;;;;;1.05;100.00;102977.78;5123093;28;20039;-59
2023/02/28 04:58:54;;;;;;;7.32;2.75;;;;;;;0.95;100.00;102972.50;5121337;27;20058;-59
2023/02/28 05:01:25;;;;;;;7.18;3.05;;;;;;;1.05;100.00;102981.28;5117253;28;20051;-59
2023/02/28 05:03:57;;;;;;;8.50;3.00;;;;;;;0.98;100.00;102979.47;5119912;28;20082;-59
2023/02/28 05:06:28;;;;;;;5.77;2.37;;;;;;;0.97;100.00;102990.69;5119150;28;20059;-59
2023/02/28 05:08:56;;;;;;;5.78;2.95;;;;;;;0.97;100.00;102982.94;5120367;28;20042;-59
2023/02/28 05:11:26;;;;;;;9.30;3.40;;;;;;;0.93;100.00;102984.59;5120739;28;20031;-59
2023/02/28 05:13:56;;;;;;;8.68;2.60;;;;;;;0.93;100.00;102983.75;5116346;28;20050;-59
2023/02/28 05:16:27;;;;;;;7.35;2.90;;;;;;;0.94;100.00;102980.28;5123546;27;20061;-59
2023/02/28 05:18:55;;;;;;;5.40;2.50;;;;;;;1.00;100.00;102993.31;5119172;28;20130;-59
2023/02/28 05:21:29;;;;;;;7.00;2.70;;;;;;;0.94;100.00;102986.34;5122474;28;20543;-59
2023/02/28 05:24:00;;;;;;;4.55;2.65;;;;;;;0.95;100.00;102984.63;5118405;28;20088;-59
2023/02/28 05:26:29;;;;;;;6.40;2.92;;;;;;;0.96;100.00;102988.94;5121550;27;20051;-59
2023/02/28 05:28:59;;;;;;;7.97;3.08;;;;;;;1.00;100.00;102985.53;5121106;28;20043;-59
2023/02/28 05:31:27;;;;;;;4.57;2.58;;;;;;;0.99;100.00;102987.25;5122256;28;20035;-59
2023/02/28 05:33:55;;;;;;;6.90;3.00;;;;;;;0.96;100.00;102982.03;5120618;28;20107;-59
2023/02/28 05:36:24;;;;;;;7.50;3.05;;;;;;;1.00;100.00;102990.72;5118631;27;20122;-59
2023/02/28 05:38:53;;;;;;;6.20;3.00;;;;;;;0.96;100.00;102991.53;5123015;27;20558;-59
2023/02/28 05:41:21;;;;;;;6.38;3.30;;;;;;;0.93;100.00;102994.97;5117160;27;20413;-59
2023/02/28 05:43:50;;;;;;;4.63;2.45;;;;;;;1.02;100.00;102996.78;5120314;27;20027;-59
2023/02/28 05:46:19;;;;;;;6.28;2.63;;;;;;;0.97;100.00;102994.16;5118057;27;20100;-59
2023/02/28 05:48:49;;;;;;;5.70;2.78;;;;;;;0.93;100.00;102989.78;5126107;27;20054;-59
2023/02/28 05:51:18;;;;;;;6.43;2.83;;;;;;;0.94;100.00;103006.19;5143716;27;20047;-59
2023/02/28 05:53:48;;;;;;;5.10;2.78;;;;;;;0.88;100.00;102995.78;5123748;27;20066;-59
2023/02/28 05:56:16;;;;;;;5.40;2.50;;;;;;;0.88;100.00;102988.88;5126125;27;20122;-59
2023/02/28 05:58:44;;;;;;;6.32;2.70;;;;;;;0.95;100.00;102998.44;5124934;27;20126;-59
2023/02/28 06:01:27;;;;;;;8.20;2.60;;;;;;;0.98;100.00;103002.78;5122561;27;20043;-59
2023/02/28 06:03:56;;;;;;;6.43;3.10;;;;;;;0.95;100.00;102998.44;5119611;27;20036;-59
2023/02/28 06:06:24;;;;;;;8.07;4.10;;;;;;;0.95;100.00;103001.03;5120627;27;20424;-59
2023/02/28 06:08:52;;;;;;;6.78;3.70;;;;;;;0.97;100.00;103003.66;5125033;27;20051;-59
2023/02/28 06:11:20;;;;;;;7.18;2.70;;;;;;;0.96;100.00;102989.81;5132778;27;20035;-59
2023/02/28 06:13:48;;;;;;;7.53;2.70;;;;;;;0.97;100.00;103011.44;5134963;27;20039;-59
2023/02/28 06:16:16;;;;;;;7.38;3.00;;;;;;;0.92;100.00;103024.31;5132752;27;20089;-59
2023/02/28 06:18:46;;;;;;;7.45;2.78;;;;;;;0.94;100.00;103029.53;5132849;27;20047;-59
2023/02/28 06:21:14;;;;;;;7.97;3.33;;;;;;;0.93;100.00;103027.81;5121874;27;20533;-59
2023/02/28 06:23:42;;;;;;;9.27;2.95;;;;;;;0.95;100.00;103024.34;5112828;28;20393;-59
2023/02/28 06:26:10;;;;;;;7.40;2.90;;;;;;;0.94;100.00;103019.16;5114378;28;20075;-59
2023/02/28 06:28:38;;;;;;;5.30;2.63;;;;;;;0.93;100.00;103035.56;5125105;27;20047;-59
2023/02/28 06:31:08;;;;;;;5.00;2.47;;;;;;;0.97;100.00;103032.16;5132860;27;20104;-59
2023/02/28 06:33:37;;;;;;;5.78;2.35;;;;;;;0.90;100.00;103025.16;5131961;27;20058;-59
2023/02/28 06:36:08;;;;;;;6.22;2.45;;;;;;;0.93;100.00;103035.56;5131648;27;20490;-59
2023/02/28 06:38:37;;;;;;;4.68;2.30;;;;;;;0.89;100.00;103039.84;5119367;27;20398;-59
2023/02/28 06:41:06;;;;;;;6.30;2.83;;;;;;;0.90;100.00;103030.34;5121113;27;20043;-60
2023/02/28 06:43:36;;;;;;;10.10;2.90;;;;;;;0.89;100.00;103033.81;5125007;27;20092;-59
2023/02/28 06:46:07;;;;;;;9.73;2.85;;;;;;;0.84;100.00;103028.56;5120835;27;20043;-59
2023/02/28 06:48:36;;;;;;;6.30;2.60;;;;;;;0.88;100.00;103037.25;5123663;27;20039;-59
2023/02/28 06:51:07;;;;;;;5.93;2.55;;;;;;;0.79;100.00;103041.47;5118339;27;20036;-59
2023/02/28 06:53:36;;;;;;;6.70;2.83;;;;;;;0.79;100.00;103046.66;5122442;27;20208;-59
2023/02/28 06:56:06;;;;;;;7.32;2.80;;;;;;;0.69;100.00;103047.41;5124405;27;20051;-59
2023/02/28 06:58:35;;;;;;;6.90;2.80;;;;;;;0.75;100.00;103056.94;5124637;27;20394;-59
2023/02/28 07:01:04;;;;;;;8.43;2.50;;;;;;;0.73;100.00;103050.91;5131696;27;20062;-58
2023/02/28 07:03:32;;;;;;;7.18;2.92;;;;;;;0.72;100.00;103046.56;5121349;27;20043;-59
2023/02/28 07:06:02;;;;;;;6.18;2.60;;;;;;;0.76;100.00;103049.19;5120091;27;20084;-59
2023/02/28 07:08:32;;;;;;;7.55;2.60;;;;;;;0.74;100.00;103056.09;5122725;27;20518;-59
2023/02/28 07:11:01;;;;;;;7.05;3.00;;;;;;;0.73;100.00;103056.94;5125678;27;20039;-59
2023/02/28 07:13:29;;;;;;;6.80;2.97;;;;;;;0.82;100.00;103059.63;5127961;27;20801;-59
2023/02/28 07:15:59;;;;;;;5.25;2.92;;;;;;;0.77;100.00;103060.44;5122611;27;20043;-59
2023/02/28 07:18:28;;;;;;;7.90;2.90;;;;;;;0.81;100.00;103059.63;5116097;27;20047;-59
2023/02/28 07:20:56;;;;;;;6.40;2.85;;;;;;;0.91;100.00;103052.81;5122796;27;20551;-59
2023/02/28 07:23:25;;;;;;;7.60;3.35;;;;;;;0.85;100.00;103064.00;5117921;27;20043;-59
2023/02/28 07:25:54;;;;;;;7.68;3.55;;;;;;;0.80;100.00;103063.06;5116235;27;20504;-59
2023/02/28 07:28:23;;;;;;;7.00;3.40;;;;;;;0.82;100.00;103053.59;5118116;27;20489;-59
2023/02/28 07:30:51;;;;;;;10.88;3.35;;;;;;;0.87;100.00;103066.59;5121293;27;20122;-59
2023/02/28 07:33:19;;;;;;;7.75;3.60;;;;;;;0.89;100.00;103064.91;5115620;27;20040;-59
2023/02/28 07:35:47;;;;;;;8.05;3.17;;;;;;;0.92;100.00;103065.78;5115068;27;20982;-59
2023/02/28 07:38:15;;;;;;;7.70;3.63;;;;;;;0.92;100.00;103073.56;5120514;27;20054;-59
2023/02/28 07:40:43;;;;;;;7.53;3.42;;;;;;;0.94;100.00;103078.75;5128485;27;20569;-59
2023/02/28 07:43:13;;;;;;;6.97;2.90;;;;;;;1.03;100.00;103080.59;5129624;27;20030;-59
2023/02/28 07:45:41;;;;;;;6.93;3.28;;;;;;;1.09;100.00;103072.84;5126144;27;20047;-59
2023/02/28 07:48:09;;;;;;;6.65;3.20;;;;;;;1.41;100.00;103070.56;5131339;27;20039;-59
2023/02/28 07:50:40;;;;;;;9.52;3.95;;;;;;;1.62;100.00;103069.03;5130089;27;20045;-59
2023/02/28 07:53:08;;;;;;;8.93;3.50;;;;;;;1.74;100.00;103068.25;5126755;27;20043;-60
2023/02/28 07:55:36;;;;;;;7.00;3.10;;;;;;;2.24;100.00;103069.44;5131977;27;20108;-60
2023/02/28 07:58:05;;;;;;;6.95;3.30;;;;;;;2.30;99.34;103070.31;5132470;27;20039;-60
2023/02/28 08:00:34;;;;;;;7.90;3.60;;;;;;;2.70;98.28;103070.50;5129967;27;20043;-59
2023/02/28 08:03:02;;;;;;;6.30;3.15;;;;;;;2.80;95.04;103068.78;5118268;27;20085;-60
2023/02/28 08:05:31;;;;;;;6.88;3.00;;;;;;;2.96;91.84;103069.72;5125214;27;20374;-60
2023/02/28 08:07:59;;;;;;;7.28;3.20;;;;;;;3.18;92.63;103064.56;5130976;27;20537;-60
2023/02/28 08:10:27;;;;;;;6.40;2.92;;;;;;;3.16;88.99;103069.75;5129360;27;20047;-59
2023/02/28 08:12:55;;;;;;;6.57;2.75;;;;;;;3.36;87.17;103074.97;5131209;27;20050;-60
2023/02/28 08:15:23;;;;;;;6.85;2.90;;;;;;;3.62;85.78;103075.84;5133027;27;20549;-60
2023/02/28 08:17:52;;;;;;;7.07;3.00;;;;;;;4.02;81.98;103075.78;5133156;27;20130;-60
2023/02/28 08:20:21;;;;;;;6.20;2.70;;;;;;;3.84;78.55;103069.72;5124642;27;20043;-60
2023/02/28 08:22:49;;;;;;;5.90;2.17;;;;;;;4.16;77.87;103080.97;5130789;27;20051;-60
2023/02/28 08:25:20;;;;;;;5.50;2.50;;;;;;;4.49;75.12;103087.81;5130191;27;20047;-59
2023/02/28 08:27:51;;;;;;;7.45;2.58;;;;;;;4.21;70.21;103077.50;5130543;27;20059;-60
2023/02/28 08:30:19;;;;;;;4.25;2.00;;;;;;;4.52;68.25;103068.69;5132042;27;20355;-60
2023/02/28 08:32:49;;;;;;;5.05;2.20;;;;;;;4.51;67.34;103077.38;5132032;27;20049;-60
2023/02/28 08:35:19;;;;;;;4.50;1.95;;;;;;;4.55;68.92;103082.59;5131304;27;20050;-60
2023/02/28 08:37:48;;;;;;;5.28;2.10;;;;;;;4.38;65.95;103079.19;5132378;27;20171;-59
2023/02/28 08:40:19;;;;;;;;;;;;;;;4.12;64.53;103074.91;5129229;27;20091;-59
2023/02/28 08:42:48;;;;;;;4.78;1.90;;;;;;;4.28;67.12;103080.97;5113711;28;19919;-59
2023/02/28 08:45:16;;;;;;;7.35;2.70;;;;;;;4.38;65.85;103081.78;5131983;28;20495;-59
2023/02/28 08:47:44;;;;;;;5.65;2.30;;;;;;;4.19;66.04;103067.94;5130019;27;20042;-60
2023/02/28 08:50:14;;;;;;;6.18;2.28;;;;;;;4.13;63.58;103070.56;5129306;28;20130;-59
2023/02/28 08:52:45;;;;;;;4.65;2.10;;;;;;;4.38;63.23;103076.56;5132069;28;20073;-59
2023/02/28 08:55:13;;;;;;;4.07;2.00;;;;;;;4.25;58.23;103074.88;5117097;28;20051;-59
2023/02/28 08:57:41;;;;;;;4.13;1.90;;;;;;;4.31;56.64;103074.84;5113872;28;20097;-59
2023/02/28 09:00:13;;;;;;;7.35;1.90;;;;;;;4.71;59.73;103074.69;5118175;28;20050;-59
2023/02/28 09:02:43;;;;;;;3.20;1.60;;;;;;;4.79;56.49;103074.66;5129551;28;20054;-59
2023/02/28 09:05:11;;;;;;;2.97;1.70;;;;;;;4.94;55.65;103071.09;5128387;27;20550;-59
2023/02/28 09:07:39;;;;;;;2.90;1.42;;;;;;;4.99;52.46;103064.09;5129802;28;20055;-59
2023/02/28 09:10:10;;;;;;;2.38;1.35;;;;;;;5.06;52.90;103071.88;5125813;27;20517;-59
2023/02/28 09:12:38;;;;;;;4.22;1.70;;;;;;;5.29;52.66;103067.38;5119999;27;20038;-60
2023/02/28 09:15:08;;;;;;;3.15;1.52;;;;;;;5.23;52.64;103076.97;5119717;27;20491;-59
2023/02/28 09:17:37;;;;;;;2.35;1.50;;;;;;;4.98;50.14;103076.28;5116831;27;20051;-59
2023/02/28 09:20:06;;;;;;;3.17;1.45;;;;;;;4.80;51.01;103071.16;5113895;27;20047;-59
2023/02/28 09:22:34;;;;;;;2.67;1.60;;;;;;;4.81;49.78;103076.38;5119858;27;20043;-59
2023/02/28 09:25:02;;;;;;;2.88;1.65;;;;;;;4.98;52.66;103078.88;5120920;27;20066;-59
2023/02/28 09:27:31;;;;;;;3.70;1.60;;;;;;;4.88;51.83;103080.69;5118914;27;20515;-59
2023/02/28 09:29:59;;;;;;;4.32;1.60;;;;;;;4.91;54.02;103078.06;5116270;27;20057;-59
2023/02/28 09:32:28;;;;;;;4.50;2.03;;;;;;;4.94;52.01;103076.31;5119543;27;20382;-59
2023/02/28 09:34:56;;;;;;;3.22;1.70;;;;;;;5.07;50.05;103078.84;5114822;27;20165;-59
2023/02/28 09:37:29;;;;;;;4.13;1.90;;;;;;;5.32;52.21;103062.16;5115243;27;20043;-59
2023/02/28 09:39:57;;;;;;;4.03;1.60;;;;;;;5.38;50.55;103072.53;5118368;27;20043;-59
2023/02/28 09:42:34;;;;;;;3.60;1.70;;;;;;;5.37;51.38;103069.06;5115012;27;20047;-59
2023/02/28 09:45:07;;;;;;;3.47;1.80;;;;;;;5.27;50.55;103066.53;5118764;27;20043;-59
2023/02/28 09:47:40;;;;;;;3.47;1.77;;;;;;;5.20;49.37;103056.13;5128868;27;20423;-59
2023/02/28 09:50:18;;;;;;;;;;;;;;;5.28;47.20;103063.91;5119542;27;20144;-59
2023/02/28 09:52:49;;;;;;;3.22;1.40;;;;;;;5.50;46.64;103061.13;5121900;27;19927;-59
2023/02/28 09:55:23;;;;;;;3.17;1.40;;;;;;;5.71;47.25;103065.28;5116295;27;20043;-59
2023/02/28 09:57:54;;;;;;;4.05;1.75;;;;;;;6.01;47.83;103063.28;5116789;27;20120;-59
2023/02/28 10:00:26;;;;;;;3.72;1.60;;;;;;;6.17;48.11;103061.38;5116890;27;20036;-59
2023/02/28 10:03:24;;;;;;;2.30;1.40;;;;;;;6.20;45.31;103063.94;5117633;27;20098;-60
2023/02/28 10:06:00;;;;;;;2.65;1.38;;;;;;;6.32;43.97;103065.56;5110361;27;20039;-60
2023/02/28 10:08:32;;;;;;;4.25;1.70;;;;;;;6.23;44.02;103056.97;5117650;27;20854;-59
2023/02/28 10:11:04;;;;;;;2.25;1.40;;;;;;;6.40;44.28;103056.75;5113273;27;20050;-59
2023/02/28 10:13:37;;;;;;;3.33;1.50;;;;;;;6.49;44.57;103055.78;5116403;27;20077;-59
2023/02/28 10:16:09;;;;;;;2.22;1.20;;;;;;;6.90;44.91;103063.97;5125457;27;20055;-60
2023/02/28 10:18:47;;;;;;;2.72;1.25;;;;;;;6.93;44.06;103053.44;5117095;27;20096;-59
2023/02/28 10:21:20;;;;;;;4.22;1.50;;;;;;;7.09;43.55;103047.09;5121076;27;20062;-60
2023/02/28 10:23:50;;;;;;;3.97;1.55;;;;;;;7.10;43.84;103048.81;5115738;27;20070;-60
2023/02/28 10:26:19;;;;;;;3.58;1.42;;;;;;;6.88;43.23;103052.63;5117370;27;20096;-60
2023/02/28 10:28:48;;;;;;;2.72;1.40;;;;;;;7.07;42.94;103048.00;5117925;27;20055;-60
2023/02/28 10:31:19;;;;;;;2.95;1.60;;;;;;;7.32;43.21;103048.50;5112475;27;20043;-60
2023/02/28 10:33:49;;;;;;;4.53;1.65;;;;;;;7.32;43.08;103045.00;5128540;27;20054;-60
2023/02/28 10:36:19;;;;;;;3.03;1.40;;;;;;;7.68;43.28;103046.13;5114018;27;20044;-60
2023/02/28 10:38:50;;;;;;;3.22;1.60;;;;;;;7.74;43.16;103039.91;5121094;27;20047;-60
2023/02/28 10:41:28;;;;;;;3.80;1.80;;;;;;;7.85;43.95;103037.94;5117401;27;20122;-60
2023/02/28 10:44:21;;;;;;;3.33;1.67;;;;;;;8.34;42.05;103035.25;5114968;28;20108;-60
2023/02/28 10:46:50;;;;;;;3.08;1.50;;;;;;;8.23;41.01;103036.31;5121391;27;20035;-60
2023/02/28 10:49:22;;;;;;;5.35;1.60;;;;;;;8.31;40.66;103040.56;5130472;27;20067;-60
2023/02/28 10:51:54;;;;;;;2.67;1.50;;;;;;;8.79;41.44;103036.06;5112327;27;20123;-60
2023/02/28 10:54:35;;;;;;;3.33;1.58;;;;;;;9.12;40.63;103024.78;5123567;27;20047;-60
2023/02/28 10:57:17;;;;;;;4.32;2.28;;;;;;;9.19;39.28;103030.75;5129228;27;20613;-60
2023/02/28 10:59:52;;;;;;;2.92;1.50;;;;;;;9.01;37.85;103034.69;5132027;27;20498;-60
2023/02/28 11:02:31;;;;;;;3.22;1.73;;;;;;;8.90;39.30;103027.94;5119921;27;20062;-61
2023/02/28 11:05:25;;;;;;;3.00;1.55;;;;;;;9.71;40.70;103023.31;5133920;27;20031;-60
2023/02/28 11:07:57;;;;;;;5.68;1.90;;;;;;;9.62;39.05;103021.78;5135268;27;20047;-60
2023/02/28 11:10:29;;;;;;;3.90;1.50;;;;;;;9.54;38.38;103015.88;5133379;27;20513;-61
2023/02/28 11:12:59;;;;;;;3.92;1.70;;;;;;;9.86;37.00;103017.63;5117620;27;20051;-60
2023/02/28 11:15:32;;;;;;;3.28;1.70;;;;;;;9.95;36.71;103016.50;5112792;27;20052;-59
2023/02/28 11:18:03;;;;;;;2.33;1.30;;;;;;;9.91;35.90;103010.50;5114903;27;20097;-59
2023/02/28 11:20:34;;;;;;;3.42;1.77;;;;;;;9.81;36.41;103009.88;5126770;27;20557;-59
2023/02/28 11:23:06;;;;;;;2.92;1.70;;;;;;;10.04;36.41;103010.16;5133585;27;20062;-59
2023/02/28 11:25:39;;;;;;;3.88;1.75;;;;;;;10.52;35.70;103001.72;5133588;27;20050;-59
2023/02/28 11:28:25;;;;;;;2.47;1.52;;;;;;;10.87;35.96;103007.69;5131837;27;20523;-59
2023/02/28 11:31:15;;;;;;;3.80;1.52;;;;;;;10.50;34.16;102998.31;5116395;27;20054;-59
2023/02/28 11:33:45;;;;;;;3.60;1.50;;;;;;;11.10;34.49;103000.81;5111484;27;20646;-60
2023/02/28 11:36:15;;;;;;;2.15;1.50;;;;;;;11.03;34.83;103001.91;5113021;28;20140;-60
2023/02/28 11:38:44;;;;;;;2.85;1.50;;;;;;;10.77;33.39;102995.69;5111098;27;20047;-60
2023/02/28 11:41:28;;;;;;;2.88;1.50;;;;;;;10.70;34.80;103000.28;5112478;28;20477;-60
2023/02/28 11:44:28;;;;;;;3.50;1.60;;;;;;;10.70;32.88;103010.81;5116505;27;20110;-60
2023/02/28 11:47:02;;;;;;;2.67;1.70;;;;;;;10.39;33.98;103000.38;5110834;27;20082;-60